Terminal Aerodrome Forecast
Issued by NWS

Home | Current Version | Previous Version | Text Only | Print | Product List | Glossary Off
Versions: 1 2 3 4 5 6 7 8 9 10 11 12 13 14 15 16 17 18 19 20 21 22 23 24 25 26

871
FTUS43 KBIS 161720
TAFDIK
TAF
KDIK 161720Z 1618/1718 24016G26KT P6SM SCT200
     FM162300 26013KT P6SM BKN120
     FM170900 31009KT P6SM VCSH OVC030
     FM171200 30012KT P6SM VCSH BKN010
     FM171600 30012G20KT P6SM BKN025=

USA.gov is the U.S. government's official web portal to all federal, state and local government web resources and services.